PWSweather.com
Personal Weather Stations
Station Observations
IPORTUGA89
BarosaPT

BarosaPT

Lat: 39.754028, Lon: -8.843

Elevation: 98

Station Type: Davis Vp2

Latest ConditionsUpdated 7:49:57 AM GMT Thursday, Jul 18, 2019
Currently Today's Max Today's Min Today's Average
Temperature 63.0°F17.2°C 63.0°F17.2°C 58.8°F14.9°C 61.9°F16.6°C
Dew Point 59.0°F15.0°C 59.4°F15.2°C 56.1°F13.4°C 58.5°F14.7°C
Winds 2.9 mph N4.7 kmh N 8.9 mph -14.3 kmh - - 4.8 mph 7.7 kmh
Wind Gusts 8.1 mph13.0 kmh 17.9 mph28.8 kmh - -
Humidity 87% 92% 87% 89%
Pressure 30.09 in1019.0 mb 30.12 in1020.0 mb 30.07 in1018.3 mb -
Hour Temp Dew Point Humidity Winds Wind Gusts Pressure Precip Precip Rate Daily Precip Total
07:49 AM 63.0°F17.2°C 59.0°F15.0°C 87% 2.9 mph N4.7 kmh N 8.1 mph13.0 kmh 30.09 in1019.0 mb 0.00 in0.0 mm 0.00 in0.0 mm 0.00 in0.0 mm
07:39 AM 62.8°F17.1°C 58.8°F14.9°C 87% 4.0 mph NW6.4 kmh NW 8.9 mph14.3 kmh 30.09 in1019.0 mb 0.00 in0.0 mm 0.00 in0.0 mm 0.00 in0.0 mm
07:29 AM 62.6°F17.0°C 58.6°F14.8°C 87% 4.0 mph NW6.4 kmh NW 8.1 mph13.0 kmh 30.09 in1019.0 mb 0.00 in0.0 mm 0.00 in0.0 mm 0.00 in0.0 mm
07:19 AM 62.4°F16.9°C 58.5°F14.7°C 87% 2.9 mph NW4.7 kmh NW 6.9 mph11.1 kmh 30.09 in1019.0 mb 0.00 in0.0 mm 0.00 in0.0 mm 0.00 in0.0 mm
07:09 AM 62.2°F16.8°C 58.6°F14.8°C 88% 2.9 mph NW4.7 kmh NW 4.9 mph7.9 kmh 30.08 in1018.6 mb 0.00 in0.0 mm 0.00 in0.0 mm 0.00 in0.0 mm
06:59 AM 62.1°F16.7°C 58.5°F14.7°C 88% 4.0 mph NW6.4 kmh NW 8.1 mph13.0 kmh 30.08 in1018.6 mb 0.00 in0.0 mm 0.00 in0.0 mm 0.00 in0.0 mm
06:49 AM 62.1°F16.7°C 58.5°F14.7°C 88% 2.9 mph NW4.7 kmh NW 8.1 mph13.0 kmh 30.08 in1018.6 mb 0.00 in0.0 mm 0.00 in0.0 mm 0.00 in0.0 mm
06:39 AM 61.9°F16.6°C 58.3°F14.6°C 88% 4.0 mph NW6.4 kmh NW 8.1 mph13.0 kmh 30.08 in1018.6 mb 0.00 in0.0 mm 0.00 in0.0 mm 0.00 in0.0 mm
06:29 AM 61.7°F16.5°C 58.1°F14.5°C 88% 2.9 mph NW4.7 kmh NW 4.9 mph7.9 kmh 30.08 in1018.6 mb 0.00 in0.0 mm 0.00 in0.0 mm 0.00 in0.0 mm
06:19 AM 61.5°F16.4°C 57.9°F14.4°C 88% 2.0 mph NW3.2 kmh NW 4.0 mph6.4 kmh 30.08 in1018.6 mb 0.00 in0.0 mm 0.00 in0.0 mm 0.00 in0.0 mm
06:09 AM 61.5°F16.4°C 57.9°F14.4°C 88% 2.9 mph N4.7 kmh N 6.0 mph9.7 kmh 30.08 in1018.6 mb 0.00 in0.0 mm 0.00 in0.0 mm 0.00 in0.0 mm
05:59 AM 61.5°F16.4°C 57.9°F14.4°C 88% 4.0 mph WNW6.4 kmh WNW 8.9 mph14.3 kmh 30.08 in1018.6 mb 0.00 in0.0 mm 0.00 in0.0 mm 0.00 in0.0 mm
05:49 AM 61.5°F16.4°C 57.9°F14.4°C 88% 4.0 mph NW6.4 kmh NW 8.9 mph14.3 kmh 30.08 in1018.6 mb 0.00 in0.0 mm 0.00 in0.0 mm 0.00 in0.0 mm
05:39 AM 61.5°F16.4°C 57.9°F14.4°C 88% 4.9 mph NW7.9 kmh NW 12.1 mph19.5 kmh 30.08 in1018.6 mb 0.00 in0.0 mm 0.00 in0.0 mm 0.00 in0.0 mm
05:29 AM 61.5°F16.4°C 57.9°F14.4°C 88% 4.0 mph N6.4 kmh N 10.1 mph16.3 kmh 30.08 in1018.6 mb 0.00 in0.0 mm 0.00 in0.0 mm 0.00 in0.0 mm
05:19 AM 61.7°F16.5°C 58.1°F14.5°C 88% 4.9 mph N7.9 kmh N 10.1 mph16.3 kmh 30.08 in1018.6 mb 0.00 in0.0 mm 0.00 in0.0 mm 0.00 in0.0 mm
05:09 AM 61.9°F16.6°C 58.3°F14.6°C 88% 4.9 mph NNW7.9 kmh NNW 11.0 mph17.7 kmh 30.08 in1018.6 mb 0.00 in0.0 mm 0.00 in0.0 mm 0.00 in0.0 mm
04:59 AM 61.9°F16.6°C 58.3°F14.6°C 88% 4.9 mph 7.9 kmh 10.1 mph16.3 kmh 30.08 in1018.6 mb 0.00 in0.0 mm 0.00 in0.0 mm 0.00 in0.0 mm
04:49 AM 61.9°F16.6°C 58.3°F14.6°C 88% 4.0 mph NW6.4 kmh NW 12.1 mph19.5 kmh 30.08 in1018.6 mb 0.00 in0.0 mm 0.00 in0.0 mm 0.00 in0.0 mm
04:39 AM 61.9°F16.6°C 58.3°F14.6°C 88% 4.0 mph NW6.4 kmh NW 11.0 mph17.7 kmh 30.08 in1018.6 mb 0.00 in0.0 mm 0.00 in0.0 mm 0.00 in0.0 mm
04:29 AM 62.1°F16.7°C 58.5°F14.7°C 88% 6.0 mph N9.7 kmh N 11.0 mph17.7 kmh 30.08 in1018.6 mb 0.00 in0.0 mm 0.00 in0.0 mm 0.00 in0.0 mm
04:19 AM 62.1°F16.7°C 58.5°F14.7°C 88% 4.9 mph N7.9 kmh N 11.0 mph17.7 kmh 30.07 in1018.3 mb 0.00 in0.0 mm 0.00 in0.0 mm 0.00 in0.0 mm
04:08 AM 62.2°F16.8°C 58.6°F14.8°C 88% 4.9 mph NW7.9 kmh NW 14.1 mph22.7 kmh 30.08 in1018.6 mb 0.00 in0.0 mm 0.00 in0.0 mm 0.00 in0.0 mm
03:58 AM 62.2°F16.8°C 58.3°F14.6°C 87% 4.9 mph N7.9 kmh N 14.1 mph22.7 kmh 30.08 in1018.6 mb 0.00 in0.0 mm 0.00 in0.0 mm 0.00 in0.0 mm
03:48 AM 62.2°F16.8°C 58.3°F14.6°C 87% 6.0 mph N9.7 kmh N 14.1 mph22.7 kmh 30.08 in1018.6 mb 0.00 in0.0 mm 0.00 in0.0 mm 0.00 in0.0 mm
03:38 AM 62.4°F16.9°C 58.5°F14.7°C 87% 6.0 mph NW9.7 kmh NW 13.0 mph20.9 kmh 30.07 in1018.3 mb 0.00 in0.0 mm 0.00 in0.0 mm 0.00 in0.0 mm
03:28 AM 62.4°F16.9°C 58.5°F14.7°C 87% 6.9 mph NW11.1 kmh NW 12.1 mph19.5 kmh 30.08 in1018.6 mb 0.00 in0.0 mm 0.00 in0.0 mm 0.00 in0.0 mm
03:18 AM 62.4°F16.9°C 58.5°F14.7°C 87% 6.9 mph NNW11.1 kmh NNW 14.1 mph22.7 kmh 30.08 in1018.6 mb 0.00 in0.0 mm 0.00 in0.0 mm 0.00 in0.0 mm
03:08 AM 62.6°F17.0°C 58.6°F14.8°C 87% 8.9 mph N14.3 kmh N 14.1 mph22.7 kmh 30.08 in1018.6 mb 0.00 in0.0 mm 0.00 in0.0 mm 0.00 in0.0 mm
02:58 AM 62.8°F17.1°C 58.8°F14.9°C 87% 4.9 mph N7.9 kmh N 11.0 mph17.7 kmh 30.08 in1018.6 mb 0.00 in0.0 mm 0.00 in0.0 mm 0.00 in0.0 mm
02:48 AM 62.8°F17.1°C 58.8°F14.9°C 87% 8.1 mph NW13.0 kmh NW 14.1 mph22.7 kmh 30.09 in1019.0 mb 0.00 in0.0 mm 0.00 in0.0 mm 0.00 in0.0 mm
02:38 AM 62.8°F17.1°C 59.2°F15.1°C 88% 8.1 mph NNE13.0 kmh NNE 15.0 mph24.1 kmh 30.09 in1019.0 mb 0.00 in0.0 mm 0.00 in0.0 mm 0.00 in0.0 mm
02:28 AM 62.8°F17.1°C 59.2°F15.1°C 88% 6.9 mph NNW11.1 kmh NNW 15.0 mph24.1 kmh 30.09 in1019.0 mb 0.00 in0.0 mm 0.00 in0.0 mm 0.00 in0.0 mm
02:18 AM 62.8°F17.1°C 59.2°F15.1°C 88% 8.9 mph N14.3 kmh N 17.9 mph28.8 kmh 30.09 in1019.0 mb 0.00 in0.0 mm 0.00 in0.0 mm 0.00 in0.0 mm
02:08 AM 62.8°F17.1°C 59.2°F15.1°C 88% 8.1 mph NNW13.0 kmh NNW 16.1 mph25.9 kmh 30.09 in1019.0 mb 0.00 in0.0 mm 0.00 in0.0 mm 0.00 in0.0 mm
01:58 AM 62.6°F17.0°C 59.4°F15.2°C 89% 6.0 mph N9.7 kmh N 13.0 mph20.9 kmh 30.09 in1019.0 mb 0.00 in0.0 mm 0.00 in0.0 mm 0.00 in0.0 mm
01:48 AM 62.6°F17.0°C 59.4°F15.2°C 89% 6.0 mph NW9.7 kmh NW 14.1 mph22.7 kmh 30.10 in1019.3 mb 0.00 in0.0 mm 0.00 in0.0 mm 0.00 in0.0 mm
01:38 AM 62.4°F16.9°C 59.4°F15.2°C 90% 4.9 mph NW7.9 kmh NW 12.1 mph19.5 kmh 30.10 in1019.3 mb 0.00 in0.0 mm 0.00 in0.0 mm 0.00 in0.0 mm
01:28 AM 62.2°F16.8°C 59.2°F15.1°C 90% 8.1 mph NNE13.0 kmh NNE 17.0 mph27.4 kmh 30.10 in1019.3 mb 0.00 in0.0 mm 0.00 in0.0 mm 0.00 in0.0 mm
01:18 AM 61.9°F16.6°C 59.2°F15.1°C 91% 4.9 mph N7.9 kmh N 12.1 mph19.5 kmh 30.10 in1019.3 mb 0.00 in0.0 mm 0.00 in0.0 mm 0.00 in0.0 mm
01:08 AM 61.5°F16.4°C 59.2°F15.1°C 92% 4.9 mph N7.9 kmh N 10.1 mph16.3 kmh 30.11 in1019.6 mb 0.00 in0.0 mm 0.00 in0.0 mm 0.00 in0.0 mm
12:58 AM 61.2°F16.2°C 58.8°F14.9°C 92% 2.9 mph NW4.7 kmh NW 6.9 mph11.1 kmh 30.11 in1019.6 mb 0.00 in0.0 mm 0.00 in0.0 mm 0.00 in0.0 mm
12:48 AM 60.6°F15.9°C 58.3°F14.6°C 92% 2.9 mph NW4.7 kmh NW 10.1 mph16.3 kmh 30.11 in1019.6 mb 0.00 in0.0 mm 0.00 in0.0 mm 0.00 in0.0 mm
12:38 AM 60.3°F15.7°C 57.9°F14.4°C 92% 2.9 mph NW4.7 kmh NW 6.9 mph11.1 kmh 30.11 in1019.6 mb 0.00 in0.0 mm 0.00 in0.0 mm 0.00 in0.0 mm
12:28 AM 59.9°F15.5°C 57.6°F14.2°C 92% 2.9 mph N4.7 kmh N 8.1 mph13.0 kmh 30.11 in1019.6 mb 0.00 in0.0 mm 0.00 in0.0 mm 0.00 in0.0 mm
12:18 AM 59.2°F15.1°C 56.8°F13.8°C 92% 2.9 mph W4.7 kmh W 6.0 mph9.7 kmh 30.12 in1020.0 mb 0.00 in0.0 mm 0.00 in0.0 mm 0.00 in0.0 mm
12:08 AM 58.8°F14.9°C 56.1°F13.4°C 91% 2.0 mph NW3.2 kmh NW 6.9 mph11.1 kmh 30.12 in1020.0 mb 0.00 in0.0 mm 0.00 in0.0 mm 0.00 in0.0 mm